Time;durP1;ratioP1;P1;durP2;ratioP2;P2;SDS_P1;SDS_P2;PMS_P1;PMS_P2;Temp;Humidity;BMP_temperature;BMP_pressure;BME280_temperature;BME280_humidity;BME280_pressure;Samples;Min_cycle;Max_cycle;Signal;HPM_P1;HPM_P2
2021/01/25 00:00:39;;;;;;;20.50;10.30;;;3.90;63.00;;;;;;4978005;28;20332;-61
2021/01/25 00:03:04;;;;;;;20.95;9.88;;;4.00;63.10;;;;;;4984776;28;20113;-60
2021/01/25 00:05:31;;;;;;;18.27;9.85;;;4.00;63.10;;;;;;4981762;28;20062;-60
2021/01/25 00:07:57;;;;;;;21.52;10.50;;;4.00;63.00;;;;;;4979449;28;20046;-60
2021/01/25 00:10:23;;;;;;;22.25;11.45;;;4.00;63.00;;;;;;4979116;28;20042;-60
2021/01/25 00:12:49;;;;;;;23.05;10.30;;;4.00;63.00;;;;;;4982522;28;20083;-61
2021/01/25 00:15:15;;;;;;;21.65;9.80;;;4.10;63.10;;;;;;4976101;28;21034;-60
2021/01/25 00:17:41;;;;;;;19.92;10.15;;;4.00;63.10;;;;;;4984033;28;20053;-60
2021/01/25 00:20:07;;;;;;;25.38;8.82;;;4.10;63.00;;;;;;4979769;28;20133;-60
2021/01/25 00:22:32;;;;;;;19.38;10.13;;;4.10;63.00;;;;;;4986925;28;20099;-60
2021/01/25 00:24:58;;;;;;;19.95;10.20;;;4.10;63.00;;;;;;4984047;28;20445;-60
2021/01/25 00:27:24;;;;;;;20.65;10.02;;;4.00;62.90;;;;;;4972761;28;20050;-60
2021/01/25 00:29:49;;;;;;;20.83;10.57;;;4.00;62.90;;;;;;4980865;28;20065;-60
2021/01/25 00:32:15;;;;;;;22.17;10.25;;;4.10;63.10;;;;;;4979921;28;20046;-60
2021/01/25 00:34:40;;;;;;;22.40;10.80;;;4.10;63.00;;;;;;4980115;28;20038;-60
2021/01/25 00:37:06;;;;;;;21.13;11.13;;;4.00;62.90;;;;;;4979054;28;20045;-61
2021/01/25 00:39:32;;;;;;;25.10;11.50;;;4.10;63.00;;;;;;4988289;28;20042;-60
2021/01/25 00:41:57;;;;;;;30.13;11.20;;;4.00;63.10;;;;;;4981375;28;20049;-61
2021/01/25 00:44:23;;;;;;;26.25;12.13;;;4.10;63.10;;;;;;4985029;28;20407;-60
2021/01/25 00:46:49;;;;;;;29.52;12.43;;;4.10;63.10;;;;;;4983447;28;20049;-60
2021/01/25 00:49:14;;;;;;;26.60;13.27;;;4.10;63.10;;;;;;4980299;28;20415;-60
2021/01/25 00:51:42;;;;;;;22.85;12.10;;;4.10;63.10;;;;;;4985802;28;20168;-60
2021/01/25 00:54:08;;;;;;;30.80;12.70;;;4.10;63.10;;;;;;4983900;28;20316;-60
2021/01/25 00:56:34;;;;;;;25.95;12.00;;;4.10;63.10;;;;;;4986853;28;20089;-61
2021/01/25 00:58:59;;;;;;;25.33;12.50;;;4.10;63.10;;;;;;4981620;28;20045;-60
2021/01/25 01:01:25;;;;;;;31.25;12.60;;;4.20;63.10;;;;;;4981332;28;20096;-60
2021/01/25 01:03:50;;;;;;;26.10;12.27;;;4.10;63.00;;;;;;4976165;28;20492;-60
2021/01/25 01:06:16;;;;;;;24.92;12.30;;;4.20;63.10;;;;;;4979224;28;20052;-60
2021/01/25 01:08:41;;;;;;;32.55;13.30;;;4.10;63.00;;;;;;4979827;28;20205;-60
2021/01/25 01:11:07;;;;;;;25.30;13.27;;;4.10;63.80;;;;;;4976884;28;20518;-60
2021/01/25 01:13:33;;;;;;;24.02;11.65;;;4.20;63.10;;;;;;4981226;28;20144;-60
2021/01/25 01:15:58;;;;;;;26.88;11.85;;;4.10;63.00;;;;;;4980974;28;20053;-60
2021/01/25 01:18:24;;;;;;;23.30;11.80;;;4.10;62.80;;;;;;4977706;28;20038;-60
2021/01/25 01:20:50;;;;;;;26.52;11.57;;;4.10;62.70;;;;;;4979260;28;20239;-60
2021/01/25 01:23:16;;;;;;;23.20;11.52;;;4.00;62.60;;;;;;4982324;28;20046;-60
2021/01/25 01:25:42;;;;;;;26.10;10.90;;;4.00;62.60;;;;;;4983192;28;20534;-60
2021/01/25 01:28:08;;;;;;;24.70;11.77;;;4.00;62.70;;;;;;4982063;28;20038;-60
2021/01/25 01:30:33;;;;;;;21.85;10.68;;;4.00;62.80;;;;;;4986762;28;20390;-60
2021/01/25 01:32:59;;;;;;;24.80;10.75;;;4.00;62.70;;;;;;4975852;28;20057;-61
2021/01/25 01:35:25;;;;;;;23.48;10.82;;;4.00;62.70;;;;;;4979780;28;20041;-60
2021/01/25 01:37:50;;;;;;;31.88;12.13;;;4.00;62.70;;;;;;4980465;28;20047;-60
2021/01/25 01:40:16;;;;;;;23.40;10.98;;;3.90;62.60;;;;;;4974518;28;20026;-60
2021/01/25 01:42:42;;;;;;;22.48;11.27;;;3.90;62.70;;;;;;4982266;28;20055;-60
2021/01/25 01:45:08;;;;;;;21.48;10.90;;;3.90;62.60;;;;;;4986447;28;20100;-60
2021/01/25 01:47:37;;;;;;;20.77;10.40;;;3.80;62.60;;;;;;4980584;28;20037;-60
2021/01/25 01:50:04;;;;;;;18.63;10.15;;;3.80;62.60;;;;;;4974799;28;21629;-60
2021/01/25 01:52:30;;;;;;;21.58;11.05;;;3.80;62.60;;;;;;4992231;28;20408;-60
2021/01/25 01:54:59;;;;;;;17.00;9.82;;;3.80;62.60;;;;;;4981797;28;20034;-61
2021/01/25 01:57:25;;;;;;;25.05;9.77;;;3.80;62.60;;;;;;4980158;28;20141;-60
2021/01/25 01:59:51;;;;;;;20.88;11.07;;;3.70;62.50;;;;;;4976281;28;20475;-60
2021/01/25 02:02:17;;;;;;;25.48;12.90;;;3.70;62.60;;;;;;4978994;28;20121;-60
2021/01/25 02:04:44;;;;;;;26.58;12.93;;;3.70;62.60;;;;;;4974352;28;20034;-60
2021/01/25 02:07:11;;;;;;;31.08;14.30;;;3.70;62.80;;;;;;4970437;28;20069;-61
2021/01/25 02:09:40;;;;;;;31.17;13.30;;;3.70;62.80;;;;;;4976502;28;20049;-60
2021/01/25 02:12:09;;;;;;;28.48;12.07;;;3.70;62.90;;;;;;4976426;28;20038;-60
2021/01/25 02:14:36;;;;;;;29.75;13.00;;;3.80;62.90;;;;;;4970866;28;20045;-60
2021/01/25 02:17:02;;;;;;;23.42;11.35;;;3.80;62.80;;;;;;4973700;28;20042;-60
2021/01/25 02:19:39;;;;;;;24.08;10.65;;;3.70;62.60;;;;;;4975746;28;20441;-61
2021/01/25 02:22:18;;;;;;;25.17;10.93;;;3.70;62.40;;;;;;4973582;28;20038;-60
2021/01/25 02:25:08;;;;;;;19.05;11.63;;;3.60;62.20;;;;;;4964158;28;20250;-60
2021/01/25 02:27:36;;;;;;;26.67;11.23;;;3.60;62.40;;;;;;4982303;28;20186;-60
2021/01/25 02:30:12;;;;;;;30.65;12.95;;;3.50;62.30;;;;;;4975192;28;20566;-60
2021/01/25 02:32:39;;;;;;;22.60;11.75;;;3.50;62.50;;;;;;4977359;28;23594;-60
2021/01/25 02:35:08;;;;;;;28.48;13.30;;;3.50;62.60;;;;;;4977030;28;20034;-60
2021/01/25 02:37:35;;;;;;;37.92;13.82;;;3.50;62.60;;;;;;4976407;28;20045;-60
2021/01/25 02:40:03;;;;;;;28.88;13.10;;;3.50;62.70;;;;;;4975432;28;20125;-60
2021/01/25 02:42:31;;;;;;;29.30;14.23;;;3.50;62.70;;;;;;4976494;28;20069;-60
2021/01/25 02:44:58;;;;;;;33.08;15.20;;;3.50;62.80;;;;;;4982789;28;20038;-60
2021/01/25 02:47:25;;;;;;;32.95;14.65;;;3.50;62.80;;;;;;4977329;28;20415;-61
2021/01/25 02:49:51;;;;;;;28.23;14.25;;;3.50;62.80;;;;;;4972451;28;20168;-60
2021/01/25 02:52:19;;;;;;;31.70;14.45;;;3.50;62.80;;;;;;4978985;28;20045;-60
2021/01/25 02:54:45;;;;;;;36.03;16.30;;;3.50;62.80;;;;;;4976495;28;20335;-60
2021/01/25 02:57:13;;;;;;;35.95;14.43;;;3.50;62.80;;;;;;4976099;28;21671;-61
2021/01/25 02:59:40;;;;;;;23.27;12.00;;;3.50;62.80;;;;;;4980376;28;20140;-60
2021/01/25 03:02:06;;;;;;;27.52;12.10;;;3.50;62.80;;;;;;4987105;28;21208;-60
2021/01/25 03:04:34;;;;;;;36.03;14.77;;;3.50;62.60;;;;;;4975997;28;20037;-60
2021/01/25 03:07:01;;;;;;;35.15;15.20;;;3.40;62.60;;;;;;4979363;28;20077;-60
2021/01/25 03:09:26;;;;;;;39.50;17.08;;;3.40;62.70;;;;;;4976258;28;20520;-61
2021/01/25 03:11:53;;;;;;;35.17;15.40;;;3.40;62.70;;;;;;4979610;28;20041;-60
2021/01/25 03:14:19;;;;;;;38.35;17.52;;;3.40;62.80;;;;;;4967877;28;20400;-60
2021/01/25 03:16:44;;;;;;;32.90;15.60;;;3.40;62.80;;;;;;4982176;28;20843;-60
2021/01/25 03:19:10;;;;;;;32.25;14.15;;;3.40;62.80;;;;;;4976236;28;20046;-60
2021/01/25 03:21:44;;;;;;;26.67;12.63;;;3.40;62.60;;;;;;4981439;28;20411;-60
2021/01/25 03:24:10;;;;;;;28.10;12.55;;;3.40;62.50;;;;;;4979919;28;20034;-60
2021/01/25 03:26:35;;;;;;;28.20;12.95;;;3.30;62.20;;;;;;4981988;28;20045;-60
2021/01/25 03:29:01;;;;;;;25.52;12.30;;;3.30;62.20;;;;;;4977214;28;20042;-60
2021/01/25 03:31:27;;;;;;;29.77;13.77;;;3.20;62.20;;;;;;4970637;28;20053;-60
2021/01/25 03:33:53;;;;;;;36.88;16.30;;;3.20;62.40;;;;;;4978861;28;20042;-60
2021/01/25 03:36:21;;;;;;;52.33;18.77;;;3.20;62.60;;;;;;4974198;28;20475;-60
2021/01/25 03:38:46;;;;;;;51.03;19.77;;;3.20;62.70;;;;;;4966507;28;20069;-60
2021/01/25 03:41:12;;;;;;;42.63;19.75;;;3.20;62.90;;;;;;4971940;28;20052;-60
2021/01/25 03:43:37;;;;;;;39.10;18.02;;;3.20;62.90;;;;;;4975926;28;21774;-60
2021/01/25 03:46:03;;;;;;;36.45;16.83;;;3.20;62.90;;;;;;4973454;28;20137;-60
2021/01/25 03:48:29;;;;;;;40.78;17.20;;;3.20;62.80;;;;;;4977081;28;20448;-61
2021/01/25 03:50:54;;;;;;;42.33;17.45;;;3.20;62.60;;;;;;4978915;28;20124;-61
2021/01/25 03:53:20;;;;;;;46.83;19.95;;;3.20;62.70;;;;;;4981492;28;20030;-61
2021/01/25 03:55:46;;;;;;;48.88;20.35;;;3.20;62.70;;;;;;4970901;28;20523;-61
2021/01/25 03:58:12;;;;;;;51.35;20.58;;;3.20;62.80;;;;;;4976138;28;20041;-60
2021/01/25 04:00:38;;;;;;;39.08;19.58;;;3.20;62.90;;;;;;4979537;28;20030;-60
2021/01/25 04:03:04;;;;;;;53.97;22.20;;;3.20;62.90;;;;;;4976939;28;21463;-61
2021/01/25 04:05:30;;;;;;;52.20;21.85;;;3.20;63.00;;;;;;4977785;28;20045;-61
2021/01/25 04:07:56;;;;;;;59.55;23.48;;;3.20;63.00;;;;;;4980903;28;20034;-60
2021/01/25 04:10:21;;;;;;;55.88;23.25;;;3.20;63.00;;;;;;4978353;28;20474;-60
2021/01/25 04:12:47;;;;;;;60.03;24.55;;;3.30;63.20;;;;;;4975983;28;20042;-60
2021/01/25 04:15:13;;;;;;;52.13;24.08;;;3.30;63.20;;;;;;4977704;28;20071;-60
2021/01/25 04:17:38;;;;;;;55.35;23.25;;;3.30;63.20;;;;;;4978107;28;20528;-61
2021/01/25 04:20:05;;;;;;;56.92;22.00;;;3.30;63.10;;;;;;4971676;28;20231;-61
2021/01/25 04:22:31;;;;;;;54.20;23.50;;;3.30;63.00;;;;;;4980417;28;20431;-60
2021/01/25 04:24:57;;;;;;;65.45;24.40;;;3.30;63.00;;;;;;4975779;28;20041;-60
2021/01/25 04:27:22;;;;;;;65.90;25.77;;;3.30;63.10;;;;;;4972943;28;20092;-60
2021/01/25 04:29:48;;;;;;;66.03;26.52;;;3.40;63.20;;;;;;4979777;28;20034;-60
2021/01/25 04:32:14;;;;;;;56.08;24.13;;;3.40;63.30;;;;;;4972626;28;20182;-60
2021/01/25 04:34:42;;;;;;;64.05;26.83;;;3.40;63.20;;;;;;4973510;28;20740;-60
2021/01/25 04:37:07;;;;;;;57.22;25.58;;;3.40;63.30;;;;;;4969113;28;20042;-61
2021/01/25 04:39:33;;;;;;;71.63;27.48;;;3.50;63.40;;;;;;4973926;28;24063;-60
2021/01/25 04:41:59;;;;;;;58.85;26.88;;;3.50;63.30;;;;;;4980354;28;20042;-61
2021/01/25 04:44:26;;;;;;;64.03;25.92;;;3.50;63.30;;;;;;4979195;28;20503;-61
2021/01/25 04:46:54;;;;;;;62.90;26.35;;;3.50;63.20;;;;;;4975185;28;20228;-61
2021/01/25 04:49:21;;;;;;;59.38;25.80;;;3.50;63.20;;;;;;4976847;28;20589;-60
2021/01/25 04:51:46;;;;;;;64.72;24.45;;;3.50;63.10;;;;;;4980179;28;20056;-60
2021/01/25 04:54:14;;;;;;;60.90;25.58;;;3.50;63.00;;;;;;4972610;28;20045;-60
2021/01/25 04:56:41;;;;;;;59.00;24.92;;;3.50;62.90;;;;;;4981939;28;20065;-61
2021/01/25 04:59:06;;;;;;;61.47;25.48;;;3.50;62.90;;;;;;4977804;28;20161;-60
2021/01/25 05:01:32;;;;;;;63.22;27.02;;;3.50;63.10;;;;;;4974431;28;20049;-60
2021/01/25 05:03:58;;;;;;;56.33;25.08;;;3.60;63.20;;;;;;4976870;28;20041;-60
2021/01/25 05:06:23;;;;;;;60.05;25.67;;;3.60;63.20;;;;;;4976375;28;20557;-60
2021/01/25 05:08:49;;;;;;;56.03;25.70;;;3.60;63.20;;;;;;4974368;28;20041;-60
2021/01/25 05:11:18;;;;;;;51.90;22.88;;;3.60;63.00;;;;;;4972197;28;20038;-60
2021/01/25 05:13:45;;;;;;;64.05;26.48;;;3.60;62.90;;;;;;4975177;28;20042;-60
2021/01/25 05:16:31;;;;;;;53.88;22.73;;;3.60;62.80;;;;;;4971122;28;20034;-60
2021/01/25 05:18:58;;;;;;;53.03;23.20;;;3.50;62.70;;;;;;4966505;28;20129;-60
2021/01/25 05:21:57;;;;;;;60.38;24.27;;;3.50;62.60;;;;;;4974697;28;20038;-60
2021/01/25 05:24:22;;;;;;;55.50;26.00;;;3.40;62.60;;;;;;4932494;28;20364;-60
2021/01/25 05:26:52;;;;;;;58.88;26.23;;;3.40;62.70;;;;;;4975201;28;20030;-60
2021/01/25 05:29:25;;;;;;;66.13;26.05;;;3.40;62.80;;;;;;4975243;28;20290;-60
2021/01/25 05:31:51;;;;;;;54.65;24.33;;;3.40;62.80;;;;;;4973953;28;20048;-60
2021/01/25 05:34:18;;;;;;;56.55;24.58;;;3.30;62.70;;;;;;4974773;28;20072;-60
2021/01/25 05:36:44;;;;;;;52.35;23.05;;;3.30;63.30;;;;;;4968829;28;20645;-60
2021/01/25 05:39:12;;;;;;;47.35;22.25;;;3.30;62.50;;;;;;4969053;28;20510;-60
2021/01/25 05:41:38;;;;;;;55.08;24.08;;;3.20;62.30;;;;;;4963769;28;20049;-60
2021/01/25 05:44:14;;;;;;;61.30;23.02;;;3.20;62.40;;;;;;4962557;28;20045;-60
2021/01/25 05:46:40;;;;;;;66.28;25.30;;;3.10;62.40;;;;;;4973658;28;20038;-60
2021/01/25 05:49:05;;;;;;;58.67;24.63;;;3.10;62.40;;;;;;4970371;28;20053;-61
2021/01/25 05:51:32;;;;;;;66.47;26.67;;;3.10;62.60;;;;;;4975728;28;20050;-63
2021/01/25 05:54:02;;;;;;;69.43;27.20;;;3.00;62.60;;;;;;4971467;28;20041;-61
2021/01/25 05:56:28;;;;;;;66.07;25.90;;;3.00;62.80;;;;;;4974136;28;20042;-61
2021/01/25 05:58:54;;;;;;;64.40;27.17;;;3.00;62.80;;;;;;4968429;28;20042;-61
2021/01/25 06:01:22;;;;;;;59.50;25.25;;;3.00;62.70;;;;;;4971353;28;20050;-61
2021/01/25 06:03:48;;;;;;;56.75;26.42;;;3.00;62.60;;;;;;4970337;28;20057;-60
2021/01/25 06:06:21;;;;;;;66.53;28.02;;;3.00;62.60;;;;;;4973494;28;20059;-61
2021/01/25 06:08:53;;;;;;;70.07;28.95;;;3.00;62.80;;;;;;4965476;28;20033;-61
2021/01/25 06:11:29;;;;;;;76.20;28.55;;;3.00;62.80;;;;;;4962460;28;20053;-61
2021/01/25 06:14:12;;;;;;;66.57;28.20;;;3.00;62.90;;;;;;4980568;28;20045;-60
2021/01/25 06:16:38;;;;;;;80.65;32.97;;;3.00;62.90;;;;;;4976489;28;20052;-60
2021/01/25 06:19:08;;;;;;;71.38;30.48;;;3.00;63.00;;;;;;4966186;28;20042;-60
2021/01/25 06:21:37;;;;;;;75.57;31.10;;;3.00;63.00;;;;;;4971475;28;20618;-61
2021/01/25 06:24:04;;;;;;;78.07;31.33;;;3.00;62.90;;;;;;4978262;28;20034;-60
2021/01/25 06:26:31;;;;;;;76.57;30.65;;;3.00;62.90;;;;;;4979862;28;20491;-60
2021/01/25 06:29:20;;;;;;;70.35;28.98;;;3.00;62.90;;;;;;4970118;28;20165;-60
2021/01/25 06:31:53;;;;;;;66.45;28.60;;;3.00;62.90;;;;;;4977166;28;20041;-61
2021/01/25 06:34:22;;;;;;;69.75;30.08;;;2.90;62.80;;;;;;4982537;28;20048;-61
2021/01/25 06:36:51;;;;;;;73.35;31.17;;;2.90;62.90;;;;;;4974378;28;20069;-61
2021/01/25 06:39:28;;;;;;;70.03;28.83;;;2.90;62.80;;;;;;4978509;28;20065;-60
2021/01/25 06:42:04;;;;;;;76.78;28.67;;;2.90;62.70;;;;;;4978922;28;20038;-61
2021/01/25 06:44:32;;;;;;;65.22;27.88;;;2.90;62.60;;;;;;4987972;28;20653;-61
2021/01/25 06:46:59;;;;;;;69.68;28.23;;;2.90;62.60;;;;;;4983439;28;20541;-60
2021/01/25 06:49:26;;;;;;;69.47;27.25;;;2.80;62.60;;;;;;4986645;28;20050;-60
2021/01/25 06:51:53;;;;;;;59.95;28.48;;;2.80;62.60;;;;;;4981300;28;20124;-62
2021/01/25 06:54:23;;;;;;;60.38;27.67;;;2.80;62.60;;;;;;4986199;28;20038;-60
2021/01/25 06:56:59;;;;;;;55.83;25.80;;;2.80;62.60;;;;;;4989474;28;20030;-61
2021/01/25 06:59:28;;;;;;;59.33;26.45;;;2.70;62.60;;;;;;4986386;28;20088;-60
2021/01/25 07:01:55;;;;;;;62.40;25.33;;;2.70;62.60;;;;;;4981073;28;20518;-61
2021/01/25 07:04:25;;;;;;;60.00;27.05;;;2.70;62.50;;;;;;4984024;28;20060;-61
2021/01/25 07:06:53;;;;;;;59.03;25.65;;;2.70;62.40;;;;;;4984403;28;20407;-61
2021/01/25 07:09:33;;;;;;;65.85;28.60;;;2.70;62.50;;;;;;4977251;28;20042;-61
2021/01/25 07:12:00;;;;;;;79.78;30.77;;;2.60;62.70;;;;;;4985841;28;20519;-60
2021/01/25 07:14:28;;;;;;;70.00;29.45;;;2.70;62.80;;;;;;4991000;28;20042;-61
2021/01/25 07:16:55;;;;;;;68.03;29.15;;;2.60;62.80;;;;;;4988056;28;20045;-61
2021/01/25 07:19:22;;;;;;;67.45;27.85;;;2.70;62.80;;;;;;4981318;28;20138;-60
2021/01/25 07:21:49;;;;;;;62.42;27.95;;;2.70;62.80;;;;;;4987753;28;21613;-60
2021/01/25 07:24:27;;;;;;;78.15;32.78;;;2.70;62.80;;;;;;4984401;28;20034;-60
2021/01/25 07:26:54;;;;;;;66.95;28.88;;;2.70;62.90;;;;;;4990281;28;20496;-61
2021/01/25 07:29:21;;;;;;;73.57;30.83;;;2.70;62.80;;;;;;4985093;28;20399;-61
2021/01/25 07:31:47;;;;;;;63.63;30.00;;;2.70;62.80;;;;;;4982919;28;20053;-60
2021/01/25 07:34:13;;;;;;;74.75;31.65;;;2.70;62.80;;;;;;4978954;28;20077;-60
2021/01/25 07:36:39;;;;;;;70.70;31.45;;;2.70;62.90;;;;;;4985818;28;20054;-60
2021/01/25 07:39:10;;;;;;;73.80;30.92;;;2.70;63.00;;;;;;4978396;28;20116;-61
2021/01/25 07:41:36;;;;;;;76.93;32.17;;;2.70;63.00;;;;;;4985393;28;20034;-61
2021/01/25 07:44:04;;;;;;;68.43;31.98;;;2.70;63.00;;;;;;4982478;28;20069;-61
2021/01/25 07:46:31;;;;;;;63.20;29.67;;;2.80;63.20;;;;;;4979026;28;20046;-60
2021/01/25 07:48:57;;;;;;;70.18;31.30;;;2.80;63.10;;;;;;4976096;28;20342;-61
2021/01/25 07:51:29;;;;;;;74.25;31.65;;;2.80;63.10;;;;;;4985842;28;20503;-61
2021/01/25 07:53:56;;;;;;;90.30;34.03;;;2.90;63.10;;;;;;4979685;28;20031;-61
2021/01/25 07:56:24;;;;;;;75.05;30.98;;;2.90;63.20;;;;;;4982962;28;20227;-61
2021/01/25 07:59:01;;;;;;;71.53;32.30;;;3.00;63.40;;;;;;4976867;28;20042;-60
2021/01/25 08:01:29;;;;;;;80.78;33.58;;;3.00;63.50;;;;;;4983182;28;20046;-61
2021/01/25 08:04:01;;;;;;;79.20;33.15;;;3.20;64.20;;;;;;4973218;28;20558;-61
2021/01/25 08:06:38;;;;;;;72.78;29.77;;;3.30;63.70;;;;;;4982671;28;20034;-60
2021/01/25 08:09:12;;;;;;;73.03;32.05;;;3.30;63.60;;;;;;4982761;28;20042;-61
2021/01/25 08:11:41;;;;;;;77.90;33.33;;;3.40;63.50;;;;;;4985313;28;20040;-60
2021/01/25 08:14:33;;;;;;;71.78;33.67;;;3.50;63.40;;;;;;4972762;28;20034;-60
2021/01/25 08:17:05;;;;;;;83.28;35.78;;;3.50;63.50;;;;;;4984338;28;20080;-60
2021/01/25 08:19:48;;;;;;;80.78;34.95;;;3.60;63.60;;;;;;4985766;28;20422;-61
2021/01/25 08:22:24;;;;;;;86.90;35.22;;;3.70;63.70;;;;;;4988469;28;20085;-60
2021/01/25 08:24:54;;;;;;;88.20;36.58;;;3.80;63.80;;;;;;4987464;28;20033;-61
2021/01/25 08:27:20;;;;;;;80.45;35.65;;;3.80;63.60;;;;;;4981249;28;20050;-60
2021/01/25 08:29:49;;;;;;;88.05;36.15;;;3.90;63.60;;;;;;4978607;28;20088;-60
2021/01/25 08:32:27;;;;;;;96.50;38.42;;;4.00;63.60;;;;;;4974083;28;20048;-60
2021/01/25 08:35:03;;;;;;;78.47;36.22;;;4.10;63.60;;;;;;4982544;28;20042;-60
2021/01/25 08:37:32;;;;;;;100.78;39.20;;;4.20;64.30;;;;;;4974356;28;20277;-60
2021/01/25 08:39:58;;;;;;;93.65;38.65;;;4.20;63.60;;;;;;4977698;28;20285;-60
2021/01/25 08:42:34;;;;;;;108.35;41.00;;;4.30;63.70;;;;;;4984880;28;20224;-60
2021/01/25 08:45:04;;;;;;;101.35;39.92;;;4.40;64.40;;;;;;4978019;28;20034;-60
2021/01/25 08:47:32;;;;;;;101.40;38.15;;;4.50;63.60;;;;;;4982538;28;20068;-61
2021/01/25 08:50:03;;;;;;;108.40;40.90;;;4.50;63.40;;;;;;4985099;28;20045;-60
2021/01/25 08:52:39;;;;;;;103.75;38.65;;;4.60;63.40;;;;;;4976902;28;20043;-60
2021/01/25 08:55:22;;;;;;;103.40;40.05;;;4.60;63.40;;;;;;4980113;28;20045;-61
2021/01/25 08:57:47;;;;;;;104.90;41.03;;;4.70;63.30;;;;;;4983115;28;20113;-60
2021/01/25 09:00:31;;;;;;;96.20;41.03;;;4.80;63.30;;;;;;4985738;28;20040;-60
2021/01/25 09:02:59;;;;;;;101.03;40.00;;;4.80;63.30;;;;;;4973606;28;20412;-61
2021/01/25 09:05:25;;;;;;;104.75;40.92;;;4.80;63.20;;;;;;4978647;28;20532;-60
2021/01/25 09:07:52;;;;;;;110.10;43.03;;;4.90;63.20;;;;;;4967881;28;20044;-60
2021/01/25 09:10:18;;;;;;;115.93;43.28;;;4.90;63.20;;;;;;4983324;28;20109;-60
2021/01/25 09:12:44;;;;;;;107.75;42.20;;;4.90;63.20;;;;;;4981700;28;20474;-60
2021/01/25 09:15:10;;;;;;;111.53;43.03;;;5.00;63.30;;;;;;4979317;28;20038;-60
2021/01/25 09:17:39;;;;;;;109.60;43.40;;;5.00;63.30;;;;;;4974539;28;20042;-60
2021/01/25 09:20:07;;;;;;;111.85;42.63;;;5.10;63.30;;;;;;4968496;28;20038;-60
2021/01/25 09:22:32;;;;;;;116.68;42.67;;;5.10;63.30;;;;;;4976571;28;20308;-60
2021/01/25 09:24:59;;;;;;;104.40;42.88;;;5.20;63.30;;;;;;4979208;28;20046;-61
2021/01/25 09:27:25;;;;;;;109.57;42.63;;;5.20;63.30;;;;;;4971071;28;20757;-61
2021/01/25 09:29:51;;;;;;;111.05;41.90;;;5.20;63.20;;;;;;4978105;28;20049;-61
2021/01/25 09:32:16;;;;;;;114.60;43.50;;;5.20;63.10;;;;;;4980067;28;20049;-60
2021/01/25 09:34:42;;;;;;;110.30;43.78;;;5.30;63.20;;;;;;4977556;28;23965;-60
2021/01/25 09:37:09;;;;;;;122.97;45.72;;;5.30;63.20;;;;;;4984720;28;20030;-60
2021/01/25 09:39:36;;;;;;;111.53;42.58;;;5.40;63.30;;;;;;4973462;28;20336;-60
2021/01/25 09:42:03;;;;;;;106.45;44.20;;;5.40;63.30;;;;;;4981571;28;20458;-60
2021/01/25 09:44:29;;;;;;;120.45;43.75;;;5.40;63.20;;;;;;4978796;28;23901;-60
2021/01/25 09:46:56;;;;;;;107.78;42.50;;;5.50;63.30;;;;;;4976470;28;20060;-60
2021/01/25 09:49:22;;;;;;;118.07;43.45;;;5.50;63.20;;;;;;4983219;28;20030;-60
2021/01/25 09:51:48;;;;;;;108.85;45.80;;;5.60;63.40;;;;;;4978858;28;20065;-60
2021/01/25 09:54:13;;;;;;;114.65;46.15;;;5.60;63.40;;;;;;4973415;28;20125;-60
2021/01/25 09:56:39;;;;;;;107.70;46.25;;;5.70;63.40;;;;;;4984538;28;20073;-60
2021/01/25 09:59:05;;;;;;;127.32;45.15;;;5.70;63.40;;;;;;4978402;28;20050;-60
2021/01/25 10:01:30;;;;;;;118.10;44.88;;;5.80;63.40;;;;;;4984879;28;20033;-60
2021/01/25 10:03:56;;;;;;;118.15;44.35;;;5.80;63.40;;;;;;4980857;28;20053;-60
2021/01/25 10:06:22;;;;;;;112.07;43.63;;;5.80;63.30;;;;;;4980934;28;20041;-60
2021/01/25 10:08:48;;;;;;;108.95;44.05;;;5.90;63.50;;;;;;4977205;28;20049;-61
2021/01/25 10:11:17;;;;;;;112.68;44.72;;;6.00;63.80;;;;;;4977725;28;20038;-60
2021/01/25 10:13:42;;;;;;;108.80;45.97;;;6.10;64.10;;;;;;4977331;28;20111;-60
2021/01/25 10:16:08;;;;;;;112.30;46.38;;;6.30;64.40;;;;;;4980052;28;20109;-60
2021/01/25 10:18:33;;;;;;;117.47;44.22;;;6.60;64.40;;;;;;4972757;28;20137;-60
2021/01/25 10:20:59;;;;;;;103.68;44.88;;;6.70;64.10;;;;;;4983272;28;20045;-60
2021/01/25 10:23:26;;;;;;;142.05;49.78;;;7.00;64.30;;;;;;4973746;28;20038;-61
2021/01/25 10:25:54;;;;;;;248.65;55.65;;;7.20;64.60;;;;;;4981541;28;20092;-60
2021/01/25 10:28:20;;;;;;;115.45;47.30;;;7.50;64.40;;;;;;4980418;28;20771;-61
2021/01/25 10:30:47;;;;;;;109.20;48.33;;;7.80;64.60;;;;;;4982870;28;20136;-60
2021/01/25 10:33:13;;;;;;;170.20;47.78;;;8.20;64.30;;;;;;4984484;28;20038;-61
2021/01/25 10:35:38;;;;;;;108.78;45.03;;;8.50;63.80;;;;;;4984046;28;20030;-61
2021/01/25 10:38:05;;;;;;;114.90;47.47;;;8.70;63.20;;;;;;4982101;28;20031;-61
2021/01/25 10:40:31;;;;;;;100.15;45.85;;;8.80;63.30;;;;;;4986393;28;20095;-61
2021/01/25 10:42:58;;;;;;;100.60;46.45;;;9.00;63.60;;;;;;4979088;28;21155;-60
2021/01/25 10:45:26;;;;;;;102.25;47.00;;;9.30;63.50;;;;;;4985384;28;21548;-61
2021/01/25 10:47:52;;;;;;;88.13;44.22;;;9.70;64.20;;;;;;4982673;28;24696;-60
2021/01/25 10:50:17;;;;;;;73.43;38.90;;;10.50;65.10;;;;;;4980173;28;20042;-61
2021/01/25 10:52:44;;;;;;;71.93;38.40;;;11.40;64.60;;;;;;4979427;28;20407;-61
2021/01/25 10:55:10;;;;;;;58.33;33.25;;;12.50;63.60;;;;;;4988409;28;20041;-62
2021/01/25 10:57:36;;;;;;;53.28;29.92;;;13.60;61.00;;;;;;4981302;28;20045;-61
2021/01/25 11:00:07;;;;;;;43.25;26.13;;;14.70;58.40;;;;;;4980923;28;20057;-61
2021/01/25 11:02:33;;;;;;;40.65;26.08;;;15.70;56.10;;;;;;4980901;28;20538;-62
2021/01/25 11:04:58;;;;;;;46.97;26.08;;;16.30;53.60;;;;;;4975884;28;20049;-61
2021/01/25 11:07:24;;;;;;;47.78;26.85;;;16.60;52.10;;;;;;4981259;28;20062;-61
2021/01/25 11:09:50;;;;;;;39.58;25.67;;;16.60;51.00;;;;;;4979137;28;20046;-62
2021/01/25 11:12:16;;;;;;;43.80;26.13;;;16.50;51.00;;;;;;4977511;28;20852;-62
2021/01/25 11:14:42;;;;;;;39.40;24.23;;;16.70;51.50;;;;;;4979822;28;20194;-62
2021/01/25 11:17:08;;;;;;;44.92;24.85;;;16.90;51.40;;;;;;4987751;28;20051;-62
2021/01/25 11:19:34;;;;;;;38.30;23.95;;;17.20;50.10;;;;;;4989351;28;20056;-62
2021/01/25 11:21:59;;;;;;;41.50;23.88;;;17.50;49.80;;;;;;4990217;28;20045;-62
2021/01/25 11:24:25;;;;;;;37.95;22.60;;;18.00;49.50;;;;;;4985045;28;20088;-62
2021/01/25 11:26:53;;;;;;;38.58;22.67;;;18.50;48.20;;;;;;4986525;28;20048;-62
2021/01/25 11:29:19;;;;;;;41.67;23.98;;;18.90;47.20;;;;;;4985609;28;20042;-61
2021/01/25 11:31:44;;;;;;;37.90;23.45;;;19.30;46.20;;;;;;4986634;28;20404;-61
2021/01/25 11:34:10;;;;;;;36.03;21.77;;;19.60;45.60;;;;;;4987688;28;20042;-61
2021/01/25 11:36:36;;;;;;;34.72;20.60;;;19.80;44.50;;;;;;4984673;28;20053;-61
2021/01/25 11:39:02;;;;;;;32.85;20.40;;;20.10;43.10;;;;;;4980848;28;20136;-62
2021/01/25 11:41:28;;;;;;;28.42;18.02;;;20.40;41.60;;;;;;4988825;28;20042;-62
2021/01/25 11:43:53;;;;;;;32.15;19.58;;;20.70;40.00;;;;;;4981417;28;20049;-62
2021/01/25 11:46:19;;;;;;;27.77;17.65;;;20.80;38.40;;;;;;4981788;28;20034;-61
2021/01/25 11:48:45;;;;;;;30.70;18.27;;;21.00;37.80;;;;;;4984356;28;20038;-62
2021/01/25 11:51:10;;;;;;;25.58;17.02;;;21.10;36.90;;;;;;4980640;28;20085;-62
2021/01/25 11:53:36;;;;;;;27.75;17.33;;;21.20;36.50;;;;;;4988572;28;20140;-62
2021/01/25 11:56:02;;;;;;;26.98;15.93;;;21.30;35.70;;;;;;4987155;28;20046;-62
2021/01/25 11:58:27;;;;;;;26.92;16.40;;;21.40;35.10;;;;;;4987177;28;20034;-61
2021/01/25 12:00:53;;;;;;;28.23;16.02;;;21.30;34.40;;;;;;4988655;28;20456;-61
2021/01/25 12:03:18;;;;;;;29.08;16.67;;;21.00;34.10;;;;;;4984933;28;20137;-61
2021/01/25 12:05:44;;;;;;;29.30;15.95;;;20.70;34.70;;;;;;4979318;28;20096;-61
2021/01/25 12:08:11;;;;;;;26.33;15.18;;;20.60;34.70;;;;;;4975497;28;20803;-61
2021/01/25 12:10:37;;;;;;;25.38;15.85;;;20.70;34.60;;;;;;4979612;28;20038;-64
2021/01/25 12:13:03;;;;;;;20.92;14.50;;;20.70;34.10;;;;;;4983367;28;20034;-63
2021/01/25 12:15:28;;;;;;;25.13;15.32;;;20.80;34.00;;;;;;4980049;28;20653;-62
2021/01/25 12:17:54;;;;;;;23.48;14.88;;;20.80;34.00;;;;;;4984386;28;20172;-62
2021/01/25 12:20:19;;;;;;;28.23;15.45;;;21.00;33.90;;;;;;4979791;28;20046;-62
2021/01/25 12:22:45;;;;;;;24.30;14.23;;;21.10;33.40;;;;;;4985752;28;20633;-62
2021/01/25 12:25:11;;;;;;;21.65;12.88;;;21.20;33.40;;;;;;4982149;28;20040;-62
2021/01/25 12:27:37;;;;;;;21.25;13.20;;;21.30;33.10;;;;;;4980802;28;20041;-62
2021/01/25 12:30:03;;;;;;;20.30;13.07;;;21.30;32.50;;;;;;4980207;28;20045;-62
2021/01/25 12:32:29;;;;;;;21.90;13.10;;;21.30;32.50;;;;;;4979856;28;20054;-62
2021/01/25 12:34:57;;;;;;;23.10;13.25;;;21.30;32.40;;;;;;4984964;28;20123;-61